sensor_id;sensor_type;location;lat;lon;timestamp;P1;durP1;ratioP1;P2;durP2;ratioP2
41897;SDS011;27576;53.366;-1.498;2022-07-10T00:01:27;2.75;;;1.60;;
41897;SDS011;27576;53.366;-1.498;2022-07-10T00:03:52;2.13;;;1.55;;
41897;SDS011;27576;53.366;-1.498;2022-07-10T00:06:19;1.27;;;1.02;;
41897;SDS011;27576;53.366;-1.498;2022-07-10T00:08:45;2.88;;;1.80;;
41897;SDS011;27576;53.366;-1.498;2022-07-10T00:11:11;2.55;;;1.80;;
41897;SDS011;27576;53.366;-1.498;2022-07-10T00:13:37;1.67;;;1.35;;
41897;SDS011;27576;53.366;-1.498;2022-07-10T00:16:02;1.20;;;1.10;;
41897;SDS011;27576;53.366;-1.498;2022-07-10T00:18:28;1.88;;;1.38;;
41897;SDS011;27576;53.366;-1.498;2022-07-10T00:20:54;1.40;;;1.30;;
41897;SDS011;27576;53.366;-1.498;2022-07-10T00:23:20;2.47;;;1.50;;
41897;SDS011;27576;53.366;-1.498;2022-07-10T00:25:45;1.65;;;1.30;;
41897;SDS011;27576;53.366;-1.498;2022-07-10T00:28:10;3.30;;;1.50;;
41897;SDS011;27576;53.366;-1.498;2022-07-10T00:30:36;1.30;;;1.20;;
41897;SDS011;27576;53.366;-1.498;2022-07-10T00:33:02;3.58;;;1.75;;
41897;SDS011;27576;53.366;-1.498;2022-07-10T00:35:28;3.00;;;1.70;;
41897;SDS011;27576;53.366;-1.498;2022-07-10T00:37:54;4.68;;;2.35;;
41897;SDS011;27576;53.366;-1.498;2022-07-10T00:40:19;3.95;;;1.80;;
41897;SDS011;27576;53.366;-1.498;2022-07-10T00:42:45;2.80;;;1.85;;
41897;SDS011;27576;53.366;-1.498;2022-07-10T00:45:11;4.07;;;1.58;;
41897;SDS011;27576;53.366;-1.498;2022-07-10T00:47:37;2.17;;;1.65;;
41897;SDS011;27576;53.366;-1.498;2022-07-10T00:50:03;3.70;;;2.13;;
41897;SDS011;27576;53.366;-1.498;2022-07-10T00:52:28;2.92;;;2.20;;
41897;SDS011;27576;53.366;-1.498;2022-07-10T00:54:55;4.78;;;2.45;;
41897;SDS011;27576;53.366;-1.498;2022-07-10T00:57:22;2.85;;;2.00;;
41897;SDS011;27576;53.366;-1.498;2022-07-10T00:59:48;3.28;;;2.55;;
41897;SDS011;27576;53.366;-1.498;2022-07-10T01:02:14;2.05;;;1.75;;
41897;SDS011;27576;53.366;-1.498;2022-07-10T01:04:40;3.05;;;1.98;;
41897;SDS011;27576;53.366;-1.498;2022-07-10T01:07:06;1.92;;;1.73;;
41897;SDS011;27576;53.366;-1.498;2022-07-10T01:09:32;2.05;;;1.70;;
41897;SDS011;27576;53.366;-1.498;2022-07-10T01:11:59;1.95;;;1.65;;
41897;SDS011;27576;53.366;-1.498;2022-07-10T01:14:26;2.10;;;1.92;;
41897;SDS011;27576;53.366;-1.498;2022-07-10T01:16:53;2.50;;;1.80;;
41897;SDS011;27576;53.366;-1.498;2022-07-10T01:19:19;2.45;;;1.80;;
41897;SDS011;27576;53.366;-1.498;2022-07-10T01:21:45;3.08;;;1.65;;
41897;SDS011;27576;53.366;-1.498;2022-07-10T01:24:11;1.95;;;1.70;;
41897;SDS011;27576;53.366;-1.498;2022-07-10T01:26:37;1.35;;;1.25;;
41897;SDS011;27576;53.366;-1.498;2022-07-10T01:29:07;2.28;;;1.38;;
41897;SDS011;27576;53.366;-1.498;2022-07-10T01:31:34;2.20;;;1.55;;
41897;SDS011;27576;53.366;-1.498;2022-07-10T01:34:01;2.17;;;1.33;;
41897;SDS011;27576;53.366;-1.498;2022-07-10T01:36:29;4.13;;;1.35;;
41897;SDS011;27576;53.366;-1.498;2022-07-10T01:38:56;1.58;;;1.27;;
41897;SDS011;27576;53.366;-1.498;2022-07-10T01:41:23;2.97;;;1.38;;
41897;SDS011;27576;53.366;-1.498;2022-07-10T01:43:49;1.50;;;1.40;;
41897;SDS011;27576;53.366;-1.498;2022-07-10T01:46:15;3.53;;;1.77;;
41897;SDS011;27576;53.366;-1.498;2022-07-10T01:48:41;1.65;;;1.30;;
41897;SDS011;27576;53.366;-1.498;2022-07-10T01:51:07;2.97;;;1.50;;
41897;SDS011;27576;53.366;-1.498;2022-07-10T01:53:34;2.90;;;1.60;;
41897;SDS011;27576;53.366;-1.498;2022-07-10T01:56:01;1.70;;;1.58;;
41897;SDS011;27576;53.366;-1.498;2022-07-10T01:58:29;2.50;;;1.63;;
41897;SDS011;27576;53.366;-1.498;2022-07-10T02:00:55;2.58;;;1.67;;
41897;SDS011;27576;53.366;-1.498;2022-07-10T02:03:20;2.20;;;1.58;;
41897;SDS011;27576;53.366;-1.498;2022-07-10T02:06:04;1.85;;;1.40;;
41897;SDS011;27576;53.366;-1.498;2022-07-10T02:08:30;2.08;;;1.88;;
41897;SDS011;27576;53.366;-1.498;2022-07-10T02:10:55;1.88;;;1.58;;
41897;SDS011;27576;53.366;-1.498;2022-07-10T02:13:21;3.00;;;1.63;;
41897;SDS011;27576;53.366;-1.498;2022-07-10T02:15:46;2.00;;;1.80;;
41897;SDS011;27576;53.366;-1.498;2022-07-10T02:18:12;2.55;;;2.08;;
41897;SDS011;27576;53.366;-1.498;2022-07-10T02:20:39;1.85;;;1.67;;
41897;SDS011;27576;53.366;-1.498;2022-07-10T02:23:04;2.97;;;1.92;;
41897;SDS011;27576;53.366;-1.498;2022-07-10T02:25:31;2.95;;;1.90;;
41897;SDS011;27576;53.366;-1.498;2022-07-10T02:27:57;2.00;;;1.90;;
41897;SDS011;27576;53.366;-1.498;2022-07-10T02:30:23;1.58;;;1.48;;
41897;SDS011;27576;53.366;-1.498;2022-07-10T02:32:48;1.40;;;1.30;;
41897;SDS011;27576;53.366;-1.498;2022-07-10T02:35:14;2.33;;;1.90;;
41897;SDS011;27576;53.366;-1.498;2022-07-10T02:37:39;1.83;;;1.63;;
41897;SDS011;27576;53.366;-1.498;2022-07-10T02:40:05;3.30;;;1.90;;
41897;SDS011;27576;53.366;-1.498;2022-07-10T02:42:31;1.88;;;1.70;;
41897;SDS011;27576;53.366;-1.498;2022-07-10T02:44:56;2.22;;;1.88;;
41897;SDS011;27576;53.366;-1.498;2022-07-10T02:47:21;2.58;;;1.80;;
41897;SDS011;27576;53.366;-1.498;2022-07-10T02:49:47;1.77;;;1.67;;
41897;SDS011;27576;53.366;-1.498;2022-07-10T02:52:12;3.15;;;1.75;;
41897;SDS011;27576;53.366;-1.498;2022-07-10T02:54:38;3.15;;;2.25;;
41897;SDS011;27576;53.366;-1.498;2022-07-10T02:57:03;1.67;;;1.58;;
41897;SDS011;27576;53.366;-1.498;2022-07-10T02:59:29;1.98;;;1.77;;
41897;SDS011;27576;53.366;-1.498;2022-07-10T03:01:54;3.40;;;1.85;;
41897;SDS011;27576;53.366;-1.498;2022-07-10T03:04:20;2.45;;;1.40;;
41897;SDS011;27576;53.366;-1.498;2022-07-10T03:06:45;3.00;;;1.73;;
41897;SDS011;27576;53.366;-1.498;2022-07-10T03:09:11;2.83;;;1.73;;
41897;SDS011;27576;53.366;-1.498;2022-07-10T03:11:36;1.75;;;1.60;;
41897;SDS011;27576;53.366;-1.498;2022-07-10T03:14:02;2.58;;;1.40;;
41897;SDS011;27576;53.366;-1.498;2022-07-10T03:16:27;1.77;;;1.63;;
41897;SDS011;27576;53.366;-1.498;2022-07-10T03:18:53;2.08;;;1.60;;
41897;SDS011;27576;53.366;-1.498;2022-07-10T03:21:18;2.75;;;1.80;;
41897;SDS011;27576;53.366;-1.498;2022-07-10T03:23:44;1.58;;;1.42;;
41897;SDS011;27576;53.366;-1.498;2022-07-10T03:26:09;1.85;;;1.52;;
41897;SDS011;27576;53.366;-1.498;2022-07-10T03:28:34;2.08;;;1.30;;
41897;SDS011;27576;53.366;-1.498;2022-07-10T03:31:00;1.67;;;1.30;;
41897;SDS011;27576;53.366;-1.498;2022-07-10T03:33:27;1.50;;;1.15;;
41897;SDS011;27576;53.366;-1.498;2022-07-10T03:35:52;1.40;;;1.20;;
41897;SDS011;27576;53.366;-1.498;2022-07-10T03:38:18;1.50;;;1.40;;
41897;SDS011;27576;53.366;-1.498;2022-07-10T03:40:43;1.55;;;1.45;;
41897;SDS011;27576;53.366;-1.498;2022-07-10T03:43:12;2.45;;;1.90;;
41897;SDS011;27576;53.366;-1.498;2022-07-10T03:45:38;2.08;;;1.50;;
41897;SDS011;27576;53.366;-1.498;2022-07-10T03:48:04;2.08;;;1.70;;
41897;SDS011;27576;53.366;-1.498;2022-07-10T03:50:29;2.78;;;2.03;;
41897;SDS011;27576;53.366;-1.498;2022-07-10T03:52:55;1.42;;;1.30;;
41897;SDS011;27576;53.366;-1.498;2022-07-10T03:55:20;2.20;;;1.60;;
41897;SDS011;27576;53.366;-1.498;2022-07-10T03:57:46;2.47;;;1.95;;
41897;SDS011;27576;53.366;-1.498;2022-07-10T04:00:27;1.98;;;1.60;;
41897;SDS011;27576;53.366;-1.498;2022-07-10T04:03:02;1.70;;;1.60;;
41897;SDS011;27576;53.366;-1.498;2022-07-10T04:05:29;1.95;;;1.40;;
41897;SDS011;27576;53.366;-1.498;2022-07-10T04:07:55;2.53;;;2.03;;
41897;SDS011;27576;53.366;-1.498;2022-07-10T04:10:22;2.30;;;1.63;;
41897;SDS011;27576;53.366;-1.498;2022-07-10T04:12:48;2.85;;;1.52;;
41897;SDS011;27576;53.366;-1.498;2022-07-10T04:15:14;2.47;;;1.80;;
41897;SDS011;27576;53.366;-1.498;2022-07-10T04:17:40;1.95;;;1.65;;
41897;SDS011;27576;53.366;-1.498;2022-07-10T04:20:05;3.97;;;2.17;;
41897;SDS011;27576;53.366;-1.498;2022-07-10T04:22:31;2.95;;;1.70;;
41897;SDS011;27576;53.366;-1.498;2022-07-10T04:24:57;2.10;;;1.90;;
41897;SDS011;27576;53.366;-1.498;2022-07-10T04:27:22;2.95;;;1.90;;
41897;SDS011;27576;53.366;-1.498;2022-07-10T04:29:48;2.72;;;1.95;;
41897;SDS011;27576;53.366;-1.498;2022-07-10T04:32:14;1.95;;;1.55;;
41897;SDS011;27576;53.366;-1.498;2022-07-10T04:34:40;2.67;;;1.70;;
41897;SDS011;27576;53.366;-1.498;2022-07-10T04:37:06;2.30;;;1.67;;
41897;SDS011;27576;53.366;-1.498;2022-07-10T04:39:32;3.15;;;1.70;;
41897;SDS011;27576;53.366;-1.498;2022-07-10T04:41:59;1.88;;;1.73;;
41897;SDS011;27576;53.366;-1.498;2022-07-10T04:44:24;2.67;;;1.50;;
41897;SDS011;27576;53.366;-1.498;2022-07-10T04:46:50;1.88;;;1.70;;
41897;SDS011;27576;53.366;-1.498;2022-07-10T04:49:16;1.70;;;1.60;;
41897;SDS011;27576;53.366;-1.498;2022-07-10T04:51:41;1.63;;;1.40;;
41897;SDS011;27576;53.366;-1.498;2022-07-10T04:54:06;2.08;;;1.55;;
41897;SDS011;27576;53.366;-1.498;2022-07-10T04:56:32;2.10;;;1.45;;
41897;SDS011;27576;53.366;-1.498;2022-07-10T04:58:57;1.60;;;1.50;;
41897;SDS011;27576;53.366;-1.498;2022-07-10T05:01:23;4.30;;;1.63;;
41897;SDS011;27576;53.366;-1.498;2022-07-10T05:03:48;1.70;;;1.60;;
41897;SDS011;27576;53.366;-1.498;2022-07-10T05:06:14;1.67;;;1.58;;
41897;SDS011;27576;53.366;-1.498;2022-07-10T05:08:39;3.28;;;1.98;;
41897;SDS011;27576;53.366;-1.498;2022-07-10T05:11:05;2.08;;;1.88;;
41897;SDS011;27576;53.366;-1.498;2022-07-10T05:13:30;1.45;;;1.30;;
41897;SDS011;27576;53.366;-1.498;2022-07-10T05:15:56;3.10;;;1.60;;
41897;SDS011;27576;53.366;-1.498;2022-07-10T05:18:21;2.40;;;2.20;;
41897;SDS011;27576;53.366;-1.498;2022-07-10T05:20:47;2.00;;;1.80;;
41897;SDS011;27576;53.366;-1.498;2022-07-10T05:23:14;3.90;;;1.77;;
41897;SDS011;27576;53.366;-1.498;2022-07-10T05:25:40;1.75;;;1.63;;
41897;SDS011;27576;53.366;-1.498;2022-07-10T05:28:06;2.03;;;1.80;;
41897;SDS011;27576;53.366;-1.498;2022-07-10T05:30:32;1.65;;;1.48;;
41897;SDS011;27576;53.366;-1.498;2022-07-10T05:32:58;2.15;;;1.45;;
41897;SDS011;27576;53.366;-1.498;2022-07-10T05:35:24;1.73;;;1.60;;
41897;SDS011;27576;53.366;-1.498;2022-07-10T05:37:51;1.50;;;1.40;;
41897;SDS011;27576;53.366;-1.498;2022-07-10T05:40:17;1.98;;;1.70;;
41897;SDS011;27576;53.366;-1.498;2022-07-10T05:42:43;3.85;;;1.85;;
41897;SDS011;27576;53.366;-1.498;2022-07-10T05:45:09;1.70;;;1.60;;
41897;SDS011;27576;53.366;-1.498;2022-07-10T05:47:36;4.30;;;1.85;;
41897;SDS011;27576;53.366;-1.498;2022-07-10T05:50:02;1.63;;;1.30;;
41897;SDS011;27576;53.366;-1.498;2022-07-10T05:52:27;1.92;;;1.80;;
41897;SDS011;27576;53.366;-1.498;2022-07-10T05:54:53;1.77;;;1.67;;
41897;SDS011;27576;53.366;-1.498;2022-07-10T05:57:18;2.38;;;2.17;;
41897;SDS011;27576;53.366;-1.498;2022-07-10T05:59:44;2.22;;;1.65;;
41897;SDS011;27576;53.366;-1.498;2022-07-10T06:02:09;1.95;;;1.58;;
41897;SDS011;27576;53.366;-1.498;2022-07-10T06:04:35;2.22;;;1.45;;
41897;SDS011;27576;53.366;-1.498;2022-07-10T06:07:01;1.60;;;1.50;;
41897;SDS011;27576;53.366;-1.498;2022-07-10T06:09:27;1.88;;;1.50;;
41897;SDS011;27576;53.366;-1.498;2022-07-10T06:11:52;1.65;;;1.52;;
41897;SDS011;27576;53.366;-1.498;2022-07-10T06:14:18;1.20;;;1.10;;
41897;SDS011;27576;53.366;-1.498;2022-07-10T06:16:43;1.30;;;1.20;;
41897;SDS011;27576;53.366;-1.498;2022-07-10T06:19:08;1.13;;;1.02;;
41897;SDS011;27576;53.366;-1.498;2022-07-10T06:21:34;1.67;;;1.30;;
41897;SDS011;27576;53.366;-1.498;2022-07-10T06:23:59;1.70;;;1.40;;
41897;SDS011;27576;53.366;-1.498;2022-07-10T06:26:25;1.45;;;1.35;;
41897;SDS011;27576;53.366;-1.498;2022-07-10T06:28:50;1.60;;;1.35;;
41897;SDS011;27576;53.366;-1.498;2022-07-10T06:31:16;1.40;;;1.00;;
41897;SDS011;27576;53.366;-1.498;2022-07-10T06:33:42;1.17;;;1.00;;
41897;SDS011;27576;53.366;-1.498;2022-07-10T06:36:07;0.90;;;0.82;;
41897;SDS011;27576;53.366;-1.498;2022-07-10T06:38:33;1.38;;;1.23;;
41897;SDS011;27576;53.366;-1.498;2022-07-10T06:40:58;1.63;;;1.27;;
41897;SDS011;27576;53.366;-1.498;2022-07-10T06:43:24;1.50;;;1.10;;
41897;SDS011;27576;53.366;-1.498;2022-07-10T06:45:49;1.95;;;1.30;;
41897;SDS011;27576;53.366;-1.498;2022-07-10T06:48:15;1.17;;;1.08;;
41897;SDS011;27576;53.366;-1.498;2022-07-10T06:50:41;3.17;;;1.30;;
41897;SDS011;27576;53.366;-1.498;2022-07-10T06:53:07;1.33;;;0.90;;
41897;SDS011;27576;53.366;-1.498;2022-07-10T06:55:33;1.52;;;1.20;;
41897;SDS011;27576;53.366;-1.498;2022-07-10T06:57:59;1.23;;;1.10;;
41897;SDS011;27576;53.366;-1.498;2022-07-10T07:00:25;2.90;;;1.10;;
41897;SDS011;27576;53.366;-1.498;2022-07-10T07:02:51;1.13;;;1.08;;
41897;SDS011;27576;53.366;-1.498;2022-07-10T07:05:17;1.40;;;1.30;;
41897;SDS011;27576;53.366;-1.498;2022-07-10T07:07:42;1.30;;;1.20;;
41897;SDS011;27576;53.366;-1.498;2022-07-10T07:10:08;1.63;;;1.20;;
41897;SDS011;27576;53.366;-1.498;2022-07-10T07:12:35;1.27;;;1.17;;
41897;SDS011;27576;53.366;-1.498;2022-07-10T07:15:00;1.67;;;1.50;;
41897;SDS011;27576;53.366;-1.498;2022-07-10T07:17:26;1.08;;;1.00;;
41897;SDS011;27576;53.366;-1.498;2022-07-10T07:19:58;0.98;;;0.90;;
41897;SDS011;27576;53.366;-1.498;2022-07-10T07:22:43;2.40;;;0.90;;
41897;SDS011;27576;53.366;-1.498;2022-07-10T07:25:28;1.40;;;1.08;;
41897;SDS011;27576;53.366;-1.498;2022-07-10T07:27:54;2.53;;;1.15;;
41897;SDS011;27576;53.366;-1.498;2022-07-10T07:30:19;1.35;;;0.80;;
41897;SDS011;27576;53.366;-1.498;2022-07-10T07:32:45;1.00;;;0.90;;
41897;SDS011;27576;53.366;-1.498;2022-07-10T07:35:12;0.70;;;0.70;;
41897;SDS011;27576;53.366;-1.498;2022-07-10T07:37:39;0.98;;;0.73;;
41897;SDS011;27576;53.366;-1.498;2022-07-10T07:40:09;0.75;;;0.75;;
41897;SDS011;27576;53.366;-1.498;2022-07-10T07:42:36;0.98;;;0.80;;
41897;SDS011;27576;53.366;-1.498;2022-07-10T07:45:02;2.42;;;0.90;;
41897;SDS011;27576;53.366;-1.498;2022-07-10T07:47:29;1.05;;;0.90;;
41897;SDS011;27576;53.366;-1.498;2022-07-10T07:49:55;1.15;;;0.85;;
41897;SDS011;27576;53.366;-1.498;2022-07-10T07:52:21;1.20;;;1.10;;
41897;SDS011;27576;53.366;-1.498;2022-07-10T07:54:47;1.17;;;1.08;;
41897;SDS011;27576;53.366;-1.498;2022-07-10T07:57:13;1.40;;;0.88;;
41897;SDS011;27576;53.366;-1.498;2022-07-10T07:59:39;0.70;;;0.70;;
41897;SDS011;27576;53.366;-1.498;2022-07-10T08:02:05;1.00;;;0.80;;
41897;SDS011;27576;53.366;-1.498;2022-07-10T08:04:30;0.85;;;0.73;;
41897;SDS011;27576;53.366;-1.498;2022-07-10T08:06:56;0.90;;;0.80;;
41897;SDS011;27576;53.366;-1.498;2022-07-10T08:09:21;0.98;;;0.70;;
41897;SDS011;27576;53.366;-1.498;2022-07-10T08:11:47;0.65;;;0.65;;
41897;SDS011;27576;53.366;-1.498;2022-07-10T08:14:13;0.65;;;0.63;;
41897;SDS011;27576;53.366;-1.498;2022-07-10T08:16:39;1.20;;;0.60;;
41897;SDS011;27576;53.366;-1.498;2022-07-10T08:19:05;0.63;;;0.57;;
41897;SDS011;27576;53.366;-1.498;2022-07-10T08:21:30;0.88;;;0.60;;
41897;SDS011;27576;53.366;-1.498;2022-07-10T08:23:56;0.55;;;0.55;;
41897;SDS011;27576;53.366;-1.498;2022-07-10T08:26:22;0.63;;;0.63;;
41897;SDS011;27576;53.366;-1.498;2022-07-10T08:28:48;1.17;;;0.65;;
41897;SDS011;27576;53.366;-1.498;2022-07-10T08:31:13;1.40;;;0.68;;
41897;SDS011;27576;53.366;-1.498;2022-07-10T08:33:39;0.73;;;0.73;;
41897;SDS011;27576;53.366;-1.498;2022-07-10T08:36:04;0.75;;;0.70;;
41897;SDS011;27576;53.366;-1.498;2022-07-10T08:38:30;0.93;;;0.80;;
41897;SDS011;27576;53.366;-1.498;2022-07-10T08:40:56;1.20;;;1.10;;
41897;SDS011;27576;53.366;-1.498;2022-07-10T08:43:25;2.60;;;1.55;;
41897;SDS011;27576;53.366;-1.498;2022-07-10T08:45:51;2.08;;;1.90;;
41897;SDS011;27576;53.366;-1.498;2022-07-10T08:48:19;3.25;;;2.50;;
41897;SDS011;27576;53.366;-1.498;2022-07-10T08:50:47;2.92;;;2.58;;
41897;SDS011;27576;53.366;-1.498;2022-07-10T08:53:13;2.85;;;2.55;;
41897;SDS011;27576;53.366;-1.498;2022-07-10T08:55:44;3.20;;;2.60;;
41897;SDS011;27576;53.366;-1.498;2022-07-10T08:58:10;3.42;;;2.80;;
41897;SDS011;27576;53.366;-1.498;2022-07-10T09:00:37;3.58;;;3.20;;
41897;SDS011;27576;53.366;-1.498;2022-07-10T09:03:03;5.05;;;3.80;;
41897;SDS011;27576;53.366;-1.498;2022-07-10T09:05:28;3.25;;;2.95;;
41897;SDS011;27576;53.366;-1.498;2022-07-10T09:07:54;4.25;;;2.90;;
41897;SDS011;27576;53.366;-1.498;2022-07-10T09:10:21;4.50;;;3.10;;
41897;SDS011;27576;53.366;-1.498;2022-07-10T09:12:57;3.03;;;2.50;;
41897;SDS011;27576;53.366;-1.498;2022-07-10T09:15:28;3.08;;;2.40;;
41897;SDS011;27576;53.366;-1.498;2022-07-10T09:18:02;2.83;;;2.47;;
41897;SDS011;27576;53.366;-1.498;2022-07-10T09:23:00;4.68;;;3.13;;
41897;SDS011;27576;53.366;-1.498;2022-07-10T09:25:42;5.45;;;2.88;;
41897;SDS011;27576;53.366;-1.498;2022-07-10T09:28:07;2.60;;;2.40;;
41897;SDS011;27576;53.366;-1.498;2022-07-10T09:30:33;3.00;;;2.65;;
41897;SDS011;27576;53.366;-1.498;2022-07-10T09:41:14;2.17;;;1.90;;
41897;SDS011;27576;53.366;-1.498;2022-07-10T09:43:58;1.52;;;1.40;;
41897;SDS011;27576;53.366;-1.498;2022-07-10T09:49:03;0.80;;;0.70;;
41897;SDS011;27576;53.366;-1.498;2022-07-10T09:51:40;1.00;;;0.55;;
41897;SDS011;27576;53.366;-1.498;2022-07-10T09:54:08;1.35;;;0.88;;
41897;SDS011;27576;53.366;-1.498;2022-07-10T09:59:21;1.63;;;0.88;;
41897;SDS011;27576;53.366;-1.498;2022-07-10T10:01:50;2.35;;;0.77;;
41897;SDS011;27576;53.366;-1.498;2022-07-10T10:04:20;0.70;;;0.70;;
41897;SDS011;27576;53.366;-1.498;2022-07-10T10:06:58;2.70;;;0.63;;
41897;SDS011;27576;53.366;-1.498;2022-07-10T10:10:07;1.05;;;0.55;;
41897;SDS011;27576;53.366;-1.498;2022-07-10T10:12:31;0.85;;;0.43;;
41897;SDS011;27576;53.366;-1.498;2022-07-10T10:15:00;0.73;;;0.43;;
41897;SDS011;27576;53.366;-1.498;2022-07-10T10:17:27;0.40;;;0.40;;
41897;SDS011;27576;53.366;-1.498;2022-07-10T10:19:54;0.93;;;0.60;;
41897;SDS011;27576;53.366;-1.498;2022-07-10T10:22:42;0.40;;;0.40;;
41897;SDS011;27576;53.366;-1.498;2022-07-10T10:25:09;0.50;;;0.30;;
41897;SDS011;27576;53.366;-1.498;2022-07-10T10:27:35;0.35;;;0.35;;
41897;SDS011;27576;53.366;-1.498;2022-07-10T10:30:02;0.68;;;0.55;;
41897;SDS011;27576;53.366;-1.498;2022-07-10T10:32:28;0.73;;;0.57;;
41897;SDS011;27576;53.366;-1.498;2022-07-10T10:34:53;0.70;;;0.30;;
41897;SDS011;27576;53.366;-1.498;2022-07-10T10:37:38;0.30;;;0.30;;
41897;SDS011;27576;53.366;-1.498;2022-07-10T10:40:06;0.50;;;0.50;;
41897;SDS011;27576;53.366;-1.498;2022-07-10T10:42:38;1.15;;;0.70;;
41897;SDS011;27576;53.366;-1.498;2022-07-10T10:48:10;1.13;;;0.40;;
41897;SDS011;27576;53.366;-1.498;2022-07-10T10:53:05;0.50;;;0.50;;
41897;SDS011;27576;53.366;-1.498;2022-07-10T10:55:38;0.40;;;0.40;;
41897;SDS011;27576;53.366;-1.498;2022-07-10T10:58:16;0.30;;;0.30;;
41897;SDS011;27576;53.366;-1.498;2022-07-10T11:00:43;0.90;;;0.60;;
41897;SDS011;27576;53.366;-1.498;2022-07-10T11:03:15;0.95;;;0.50;;
41897;SDS011;27576;53.366;-1.498;2022-07-10T11:05:42;0.50;;;0.45;;
41897;SDS011;27576;53.366;-1.498;2022-07-10T11:08:09;0.30;;;0.30;;
41897;SDS011;27576;53.366;-1.498;2022-07-10T11:10:36;0.35;;;0.35;;
41897;SDS011;27576;53.366;-1.498;2022-07-10T11:13:08;0.52;;;0.52;;
41897;SDS011;27576;53.366;-1.498;2022-07-10T11:15:40;0.50;;;0.50;;
41897;SDS011;27576;53.366;-1.498;2022-07-10T11:18:08;0.55;;;0.50;;
41897;SDS011;27576;53.366;-1.498;2022-07-10T11:20:37;0.60;;;0.50;;
41897;SDS011;27576;53.366;-1.498;2022-07-10T11:26:07;0.70;;;0.45;;
41897;SDS011;27576;53.366;-1.498;2022-07-10T11:29:17;2.55;;;0.50;;
41897;SDS011;27576;53.366;-1.498;2022-07-10T11:31:31;0.65;;;0.43;;
41897;SDS011;27576;53.366;-1.498;2022-07-10T11:34:03;0.57;;;0.32;;
41897;SDS011;27576;53.366;-1.498;2022-07-10T11:36:28;0.30;;;0.30;;
41897;SDS011;27576;53.366;-1.498;2022-07-10T11:39:00;0.50;;;0.50;;
41897;SDS011;27576;53.366;-1.498;2022-07-10T11:41:33;1.42;;;0.45;;
41897;SDS011;27576;53.366;-1.498;2022-07-10T11:44:02;0.35;;;0.35;;
41897;SDS011;27576;53.366;-1.498;2022-07-10T11:46:29;0.60;;;0.60;;
41897;SDS011;27576;53.366;-1.498;2022-07-10T11:48:56;0.80;;;0.57;;
41897;SDS011;27576;53.366;-1.498;2022-07-10T11:54:03;0.40;;;0.40;;
41897;SDS011;27576;53.366;-1.498;2022-07-10T11:56:32;0.50;;;0.40;;
41897;SDS011;27576;53.366;-1.498;2022-07-10T11:59:01;0.98;;;0.47;;
41897;SDS011;27576;53.366;-1.498;2022-07-10T12:01:29;0.43;;;0.43;;
41897;SDS011;27576;53.366;-1.498;2022-07-10T12:03:58;1.35;;;0.50;;
41897;SDS011;27576;53.366;-1.498;2022-07-10T12:06:27;0.40;;;0.40;;
41897;SDS011;27576;53.366;-1.498;2022-07-10T12:08:54;0.98;;;0.50;;
41897;SDS011;27576;53.366;-1.498;2022-07-10T12:11:20;0.82;;;0.65;;
41897;SDS011;27576;53.366;-1.498;2022-07-10T12:13:47;2.35;;;0.60;;
41897;SDS011;27576;53.366;-1.498;2022-07-10T12:16:14;0.70;;;0.47;;
41897;SDS011;27576;53.366;-1.498;2022-07-10T12:18:40;0.40;;;0.40;;
41897;SDS011;27576;53.366;-1.498;2022-07-10T12:21:07;0.57;;;0.57;;
41897;SDS011;27576;53.366;-1.498;2022-07-10T12:23:34;0.60;;;0.50;;
41897;SDS011;27576;53.366;-1.498;2022-07-10T12:26:03;0.57;;;0.50;;
41897;SDS011;27576;53.366;-1.498;2022-07-10T12:28:29;1.38;;;0.55;;
41897;SDS011;27576;53.366;-1.498;2022-07-10T12:30:55;2.15;;;0.70;;
41897;SDS011;27576;53.366;-1.498;2022-07-10T12:33:21;0.43;;;0.32;;
41897;SDS011;27576;53.366;-1.498;2022-07-10T12:35:48;1.73;;;0.60;;
41897;SDS011;27576;53.366;-1.498;2022-07-10T12:38:18;0.40;;;0.40;;
41897;SDS011;27576;53.366;-1.498;2022-07-10T12:40:44;0.68;;;0.50;;
41897;SDS011;27576;53.366;-1.498;2022-07-10T12:43:10;1.40;;;0.70;;
41897;SDS011;27576;53.366;-1.498;2022-07-10T12:45:36;1.02;;;0.60;;
41897;SDS011;27576;53.366;-1.498;2022-07-10T12:48:03;0.95;;;0.73;;
41897;SDS011;27576;53.366;-1.498;2022-07-10T12:50:31;1.05;;;0.60;;
41897;SDS011;27576;53.366;-1.498;2022-07-10T12:53:06;0.70;;;0.70;;
41897;SDS011;27576;53.366;-1.498;2022-07-10T12:55:36;0.75;;;0.60;;
41897;SDS011;27576;53.366;-1.498;2022-07-10T12:58:04;0.93;;;0.75;;
41897;SDS011;27576;53.366;-1.498;2022-07-10T13:00:33;0.82;;;0.70;;
41897;SDS011;27576;53.366;-1.498;2022-07-10T13:03:01;0.80;;;0.70;;
41897;SDS011;27576;53.366;-1.498;2022-07-10T13:05:30;1.50;;;0.73;;
41897;SDS011;27576;53.366;-1.498;2022-07-10T13:08:12;0.40;;;0.40;;
41897;SDS011;27576;53.366;-1.498;2022-07-10T13:10:56;1.38;;;0.82;;
41897;SDS011;27576;53.366;-1.498;2022-07-10T13:13:26;0.82;;;0.60;;
41897;SDS011;27576;53.366;-1.498;2022-07-10T13:15:52;1.77;;;0.60;;
41897;SDS011;27576;53.366;-1.498;2022-07-10T13:18:25;0.55;;;0.55;;
41897;SDS011;27576;53.366;-1.498;2022-07-10T13:20:55;0.75;;;0.68;;
41897;SDS011;27576;53.366;-1.498;2022-07-10T13:23:23;0.70;;;0.60;;
41897;SDS011;27576;53.366;-1.498;2022-07-10T13:25:50;0.63;;;0.63;;
41897;SDS011;27576;53.366;-1.498;2022-07-10T13:28:17;0.88;;;0.70;;
41897;SDS011;27576;53.366;-1.498;2022-07-10T13:30:42;1.05;;;0.60;;
41897;SDS011;27576;53.366;-1.498;2022-07-10T13:33:08;2.13;;;0.60;;
41897;SDS011;27576;53.366;-1.498;2022-07-10T13:35:34;0.52;;;0.50;;
41897;SDS011;27576;53.366;-1.498;2022-07-10T13:38:00;1.42;;;0.68;;
41897;SDS011;27576;53.366;-1.498;2022-07-10T13:40:31;1.02;;;0.70;;
41897;SDS011;27576;53.366;-1.498;2022-07-10T13:42:58;0.65;;;0.63;;
41897;SDS011;27576;53.366;-1.498;2022-07-10T13:45:25;0.60;;;0.35;;
41897;SDS011;27576;53.366;-1.498;2022-07-10T13:48:01;0.63;;;0.55;;
41897;SDS011;27576;53.366;-1.498;2022-07-10T13:50:28;0.52;;;0.50;;
41897;SDS011;27576;53.366;-1.498;2022-07-10T13:52:53;0.70;;;0.50;;
41897;SDS011;27576;53.366;-1.498;2022-07-10T13:55:19;1.23;;;0.50;;
41897;SDS011;27576;53.366;-1.498;2022-07-10T13:57:44;0.93;;;0.57;;
41897;SDS011;27576;53.366;-1.498;2022-07-10T14:00:10;0.63;;;0.55;;
41897;SDS011;27576;53.366;-1.498;2022-07-10T14:02:36;0.30;;;0.30;;
41897;SDS011;27576;53.366;-1.498;2022-07-10T14:05:02;0.38;;;0.38;;
41897;SDS011;27576;53.366;-1.498;2022-07-10T14:07:28;0.95;;;0.55;;
41897;SDS011;27576;53.366;-1.498;2022-07-10T14:09:53;0.88;;;0.50;;
41897;SDS011;27576;53.366;-1.498;2022-07-10T14:12:19;0.60;;;0.60;;
41897;SDS011;27576;53.366;-1.498;2022-07-10T14:14:44;0.50;;;0.50;;
41897;SDS011;27576;53.366;-1.498;2022-07-10T14:17:10;0.55;;;0.50;;
41897;SDS011;27576;53.366;-1.498;2022-07-10T14:19:35;0.30;;;0.30;;
41897;SDS011;27576;53.366;-1.498;2022-07-10T14:22:01;0.98;;;0.50;;
41897;SDS011;27576;53.366;-1.498;2022-07-10T14:24:26;0.30;;;0.30;;
41897;SDS011;27576;53.366;-1.498;2022-07-10T14:26:52;0.45;;;0.43;;
41897;SDS011;27576;53.366;-1.498;2022-07-10T14:29:18;0.43;;;0.43;;
41897;SDS011;27576;53.366;-1.498;2022-07-10T14:31:44;1.17;;;0.60;;
41897;SDS011;27576;53.366;-1.498;2022-07-10T14:34:12;1.48;;;0.60;;
41897;SDS011;27576;53.366;-1.498;2022-07-10T14:36:38;0.65;;;0.60;;
41897;SDS011;27576;53.366;-1.498;2022-07-10T14:39:03;0.50;;;0.50;;
41897;SDS011;27576;53.366;-1.498;2022-07-10T14:41:29;0.40;;;0.40;;
41897;SDS011;27576;53.366;-1.498;2022-07-10T14:43:54;1.50;;;0.63;;
41897;SDS011;27576;53.366;-1.498;2022-07-10T14:46:21;0.75;;;0.50;;
41897;SDS011;27576;53.366;-1.498;2022-07-10T14:48:46;1.02;;;0.50;;
41897;SDS011;27576;53.366;-1.498;2022-07-10T14:51:11;1.45;;;0.50;;
41897;SDS011;27576;53.366;-1.498;2022-07-10T14:53:37;1.00;;;0.80;;
41897;SDS011;27576;53.366;-1.498;2022-07-10T14:56:05;0.70;;;0.57;;
41897;SDS011;27576;53.366;-1.498;2022-07-10T14:58:34;1.10;;;0.50;;
41897;SDS011;27576;53.366;-1.498;2022-07-10T15:00:59;0.55;;;0.50;;